• Join FlightAware (Why Join?)
  • Login
  • US Flag 
04:12AM EDT


 

Airport Tracker/Info


-or-


 

Live Flight TrackerFlight Track Log ✈ VH-ZWO ✈ 07-Sep-2013 ✈ YPJT / JAD - YMEK / MKR

Flight Track Log - Related Links

Times and Time Zones

All times are in EDT time to prevent confusion due to time zone crossing. See the VH-ZWO flight status page for this flight to view local times or setup timezone preferences in your user account.

Time Position Orientation Groundspeed Altitude Reporting Facility
EDT Latitude Longitude Course Direction KTS MPH feet Rate Location/Type
03:29PM -32.0960 115.8810 233° Southwest 80 92  Level FlightAware
03:29PM -32.0960 115.8810 233° Southwest 80 92 1,200 Level FlightAware
03:29PM -32.0254 115.8716 181° South 17,000 1,200 Climbing Aus ATC (Calculated)
03:29PM -32.0254 115.8716 181° South 17,000 -165,000 Level Aus ATC (Calculated)
03:30PM -32.1030 115.8700 233° Southwest 101 116 500 -165,000 Descending FlightAware
03:30PM -32.1030 115.8700 233° Southwest 101 116 500 1,140 Level FlightAware
03:30PM -32.1090 115.8590 237° Southwest 112 129 900 1,140 Climbing FlightAware
03:30PM -32.1090 115.8590 237° Southwest 112 129 900 1,200 Level FlightAware
03:30PM -32.1120 115.8560 220° Southwest 101 116 1,100 1,200 Climbing FlightAware
03:30PM -32.1120 115.8560 220° Southwest 101 116 1,100 2,400 Level FlightAware
03:30PM -32.1150 115.8540 209° Southwest 105 121 1,300 2,400 Climbing FlightAware
03:30PM -32.1150 115.8540 209° Southwest 105 121 1,300 1,200 Level FlightAware
03:30PM -32.1180 115.8540 180° South 95 109 1,400 1,200 Climbing FlightAware
03:30PM -32.1180 115.8540 180° South 95 109 1,400 1,140 Level FlightAware
03:31PM -32.1220 115.8640 115° Southeast 85 98 1,900 1,140 Climbing FlightAware
03:31PM -32.1220 115.8640 115° Southeast 85 98 1,900 1,500 Level FlightAware
03:31PM -32.1160 115.8700 40° Northeast 89 102 2,400 1,500 Climbing FlightAware
03:31PM -32.1160 115.8700 40° Northeast 89 102 2,400 1,800 Level FlightAware
03:31PM -32.1110 115.8720 19° North 86 99 2,700 1,800 Climbing FlightAware
03:31PM -32.1110 115.8720 19° North 86 99 2,700 960 Level FlightAware
03:32PM -32.1000 115.8770 21° North 121 139 3,100 960 Climbing FlightAware
03:32PM -32.1000 115.8770 21° North 121 139 3,100 1,800 Level FlightAware
03:32PM -32.0880 115.8790 North 117 135 3,700 1,800 Climbing FlightAware
03:32PM -32.0880 115.8790 North 117 135 3,700 1,380 Level FlightAware
03:32PM -32.0750 115.8760 349° North 134 154 4,300 1,380 Climbing FlightAware
03:32PM -32.0750 115.8760 349° North 134 154 4,300 1,560 Level FlightAware
03:33PM -32.0610 115.8710 349° North 137 158 4,900 1,560 Climbing FlightAware
03:33PM -32.0610 115.8710 349° North 137 158 4,900 2,520 Level FlightAware
03:33PM -32.0545 115.8692 349° North 137 158 5,200 2,520 Climbing Aus ATC (RADAR)
03:33PM -32.0545 115.8692 349° North 137 158 5,200 1,140 Level Aus ATC (RADAR)
03:33PM -32.0430 115.8650 344° North 142 163 5,600 1,140 Climbing FlightAware
03:33PM -32.0430 115.8650 344° North 142 163 5,600 1,320 Level FlightAware
03:33PM -32.0320 115.8610 343° North 143 165 6,000 1,320 Climbing FlightAware
03:33PM -32.0320 115.8610 343° North 143 165 6,000 1,740 Level FlightAware
03:34PM -32.0170 115.8550 341° North 139 160 6,700 1,740 Climbing FlightAware
03:34PM -32.0170 115.8550 341° North 139 160 6,700 1,320 Level FlightAware
03:34PM -32.0060 115.8510 343° North 143 165 7,100 1,320 Climbing FlightAware
03:34PM -32.0060 115.8510 343° North 143 165 7,100 1,740 Level FlightAware
03:35PM -31.9900 115.8450 342° North 139 160 7,800 1,740 Climbing FlightAware
03:35PM -31.9900 115.8450 342° North 139 160 7,800 960 Level FlightAware
03:35PM -31.9800 115.8410 341° North 140 161 8,100 960 Climbing FlightAware
03:35PM -31.9800 115.8410 341° North 140 161 8,100 1,440 Level FlightAware
03:35PM -31.9650 115.8350 341° North 142 163 8,700 1,440 Climbing FlightAware
03:35PM -31.9650 115.8350 341° North 142 163 8,700 1,200 Level FlightAware
03:35PM -31.9590 115.8330 344° North 142 163 8,900 1,200 Climbing FlightAware
03:35PM -31.9590 115.8330 344° North 142 163 8,900 1,200 Level FlightAware
03:36PM -31.9430 115.8270 342° North 146 168 9,400 1,200 Climbing FlightAware
03:36PM -31.9430 115.8270 342° North 146 168 9,400 1,320 Level FlightAware
03:36PM -31.9310 115.8220 341° North 148 170 9,800 1,320 Climbing FlightAware
03:36PM -31.9310 115.8220 341° North 148 170 9,800 1,500 Level FlightAware
03:37PM -31.9070 115.8130 342° North 146 168 10,700 1,500 Climbing FlightAware
03:37PM -31.9070 115.8130 342° North 146 168 10,700 1,320 Level FlightAware
03:37PM -31.8850 115.8040 341° North 141 162 11,500 1,320 Climbing FlightAware
03:37PM -31.8850 115.8040 341° North 141 162 11,500 960 Level FlightAware
03:38PM -31.8620 115.7960 344° North 143 165 12,100 960 Climbing FlightAware
03:38PM -31.8620 115.7960 344° North 143 165 12,100 1,560 Level FlightAware
03:38PM -31.8490 115.7910 342° North 138 159 12,600 1,560 Climbing FlightAware
03:38PM -31.8490 115.7910 342° North 138 159 12,600 1,080 Level FlightAware
03:39PM -31.8290 115.7830 341° North 139 160 13,300 1,080 Climbing FlightAware
03:39PM -31.8290 115.7830 341° North 139 160 13,300 1,320 Level FlightAware
03:39PM -31.8070 115.7740 341° North 142 163 14,100 1,320 Climbing FlightAware
03:39PM -31.8070 115.7740 341° North 142 163 14,100 1,380 Level FlightAware
03:40PM -31.7880 115.7670 343° North 139 160 14,800 1,380 Climbing FlightAware
03:40PM -31.7880 115.7670 343° North 139 160 14,800 1,020 Level FlightAware
03:41PM -31.7660 115.7580 341° North 146 168 15,500 1,020 Climbing FlightAware
03:41PM -31.7660 115.7580 341° North 146 168 15,500 1,020 Level FlightAware
03:41PM -31.7410 115.7490 343° North 148 170 16,100 1,020 Climbing FlightAware
03:41PM -31.7410 115.7490 343° North 148 170 16,100 1,500 Level FlightAware
03:42PM -31.7290 115.7440 340° North 139 160 16,600 1,500 Climbing FlightAware
03:42PM -31.7290 115.7440 340° North 139 160 16,600 960 Level FlightAware
03:42PM -31.7230 115.7380 320° Northwest 141 162 16,800 960 Climbing FlightAware
03:42PM -31.7230 115.7380 320° Northwest 141 162 16,800 480 Level FlightAware
03:42PM -31.7075 115.7120 320° Northwest 151 174 17,100 480 Climbing Aus ATC (RADAR)
03:42PM -31.7075 115.7120 320° Northwest 151 174 17,100 -6,000 Level Aus ATC (RADAR)
03:42PM -31.7080 115.7130 320° Northwest 163 188 17,000 -6,000 Descending FlightAware
03:42PM -31.7080 115.7130 320° Northwest 163 188 17,000 120 Level FlightAware
03:43PM -31.6910 115.6840 305° West 178 205 17,100 120 Climbing FlightAware
03:43PM -31.6910 115.6840 305° West 178 205 17,100  Level FlightAware
03:44PM -31.6760 115.6550 301° West 190 219 17,100  Level FlightAware
03:44PM -31.6760 115.6550 301° West 190 219 17,100  Level FlightAware
03:44PM -31.6650 115.6220 291° West 199 229 17,100  Level FlightAware
03:44PM -31.6650 115.6220 291° West 199 229 17,100  Level FlightAware
03:45PM -31.6500 115.5770 291° West 203 234 17,100  Level FlightAware
03:45PM -31.6500 115.5770 291° West 203 234 17,100 120 Level FlightAware
03:45PM -31.6380 115.5400 291° West 198 228 17,200 120 Climbing FlightAware
03:45PM -31.6380 115.5400 291° West 198 228 17,200 1,260 Level FlightAware
03:46PM -31.6290 115.5110 290° West 177 204 17,900 1,260 Climbing FlightAware
03:46PM -31.6290 115.5110 290° West 177 204 17,900 1,620 Level FlightAware
03:47PM -31.6154 115.4794 290° West 160 184 18,900 1,620 Climbing Aus ATC (RADAR)
03:47PM -31.6154 115.4794 290° West 160 184 18,900 -3,000 Level Aus ATC (RADAR)
03:47PM -31.6150 115.4800 290° West 155 178 18,800 -3,000 Descending FlightAware
03:47PM -31.6150 115.4800 290° West 155 178 18,800 420 Level FlightAware
03:47PM -31.5950 115.4520 310° West 173 199 19,100 420 Climbing FlightAware
03:47PM -31.5950 115.4520 310° West 173 199 19,100  Level FlightAware
03:48PM -31.5780 115.4300 312° West 189 217 19,100  Level FlightAware
03:48PM -31.5780 115.4300 312° West 189 217 19,100  Level FlightAware
03:48PM -31.5700 115.4240 327° Northwest 194 223 19,100  Level FlightAware
03:48PM -31.5700 115.4240 327° Northwest 194 223 19,100  Level FlightAware
03:51PM -31.4242 115.5210 30° Northeast  Level Estimated
03:52PM -31.3659 115.5598 30° Northeast  Level Estimated
03:53PM -31.3076 115.5984 30° Northeast  Level Estimated
03:54PM -31.2492 115.6371 30° Northeast  Level Estimated
03:55PM -31.1909 115.6757 29° Northeast  Level Estimated
03:56PM -31.1325 115.7142 29° Northeast  Level Estimated
03:57PM -31.0741 115.7527 29° Northeast  Level Estimated
03:58PM -31.0157 115.7912 29° Northeast  Level Estimated
03:59PM -30.9573 115.8296 29° Northeast  Level Estimated
04:00PM -30.8989 115.8679 29° Northeast  Level Estimated
04:01PM -30.8405 115.9062 29° Northeast  Level Estimated
04:02PM -30.7820 115.9445 29° Northeast  Level Estimated
04:03PM -30.7236 115.9827 29° Northeast  Level Estimated
04:04PM -30.6651 116.0209 29° Northeast  Level Estimated
04:05PM -30.6067 116.0590 29° Northeast  Level Estimated
04:05PM -30.5772 115.1029 29° Northeast 217 250 19,100  Level Aus ATC (RADAR)
04:05PM -30.5390 115.0854 338° Northwest 218 251 19,100  Level Aus ATC (RADAR)
04:06PM -30.5106 115.0722 338° Northwest 219 252 19,100  Level Aus ATC (RADAR)
04:07PM -30.4499 115.0416 336° Northwest 218 251 19,100  Level Aus ATC (RADAR)
04:08PM -30.3878 115.0117 338° Northwest 220 253 19,100  Level Aus ATC (RADAR)
04:09PM -30.3250 114.9817 338° Northwest 224 258 19,100  Level Aus ATC (RADAR)
04:10PM -30.2663 114.9543 338° Northwest 224 258 19,100  Level Aus ATC (RADAR)
04:11PM -30.2027 114.9252 338° Northwest 224 258 19,100  Level Aus ATC (RADAR)
04:12PM -30.1400 114.8938 337° Northwest 226 260 19,100  Level Aus ATC (RADAR)
04:13PM -30.0819 114.8643 336° Northwest 226 260 19,100  Level Aus ATC (RADAR)
04:14PM -30.0178 114.8347 338° Northwest 227 261 19,100  Level Aus ATC (RADAR)
04:15PM -29.9601 114.8712 29° Northeast 230 265 19,100  Level Aus ATC (RADAR)
04:16PM -29.9160 114.9388 53° Northeast 254 292 19,100  Level Aus ATC (RADAR)
04:17PM -29.8688 115.0118 53° Northeast 264 304 19,100  Level Aus ATC (RADAR)
04:18PM -29.8257 115.0771 53° Northeast 258 297 19,100  Level Aus ATC (RADAR)
04:20PM -29.7784 115.1503 53° Northeast 262 302 19,100  Level Aus ATC (RADAR)
04:21PM -29.7313 115.2210 52° Northeast 256 295 19,100  Level Aus ATC (RADAR)
04:22PM -29.6874 115.2871 53° Northeast 252 290 19,100  Level Aus ATC (RADAR)
04:23PM -29.6389 115.3624 53° Northeast 262 302 19,100  Level Aus ATC (RADAR)
04:24PM -29.5911 115.4343 53° Northeast 258 297 19,100  Level Aus ATC (RADAR)
04:25PM -29.5424 115.5082 53° Northeast 266 306 19,100  Level Aus ATC (RADAR)
04:26PM -29.4977 115.5759 53° Northeast 265 305 19,100  Level Aus ATC (RADAR)
04:27PM -29.4457 115.6545 53° Northeast 263 303 19,100  Level Aus ATC (RADAR)
04:28PM -29.3973 115.7280 53° Northeast 266 306 19,100  Level Aus ATC (RADAR)
04:29PM -29.3497 115.7984 52° Northeast 260 299 19,100  Level Aus ATC (RADAR)
04:30PM -29.3054 115.8657 53° Northeast 261 300 19,100  Level Aus ATC (RADAR)
04:31PM -29.2569 115.9371 52° Northeast 262 302 19,100  Level Aus ATC (RADAR)
04:32PM -29.2089 116.0087 52° Northeast 261 300 19,100  Level Aus ATC (RADAR)
04:33PM -29.1564 116.0652 43° Northeast 259 298 19,100  Level Aus ATC (RADAR)
04:35PM -29.0765 116.1457 41° Northeast 256 295 19,100  Level Aus ATC (RADAR)
04:36PM -29.0194 116.2045 42° Northeast 254 292 19,100  Level Aus ATC (RADAR)
04:37PM -28.9617 116.2624 41° Northeast 254 292 19,100  Level Aus ATC (RADAR)
04:38PM -28.9080 116.3156 41° Northeast 255 293 19,100  Level Aus ATC (RADAR)
04:39PM -28.8455 116.3800 42° Northeast 258 297 19,100  Level Aus ATC (RADAR)
04:40PM -28.7918 116.4306 40° Northeast 253 291 19,100  Level Aus ATC (RADAR)
04:41PM -28.7344 116.4896 42° Northeast 255 293 19,100  Level Aus ATC (RADAR)
04:42PM -28.6989 116.5232 40° Northeast 253 291 19,100  Level Aus ATC (RADAR)
04:47PM -28.3741 116.8422 41° Northeast 2,400 -3,300 Descending Aus ATC (Calculated)
04:49PM -28.2953 116.9201 41° Northeast  Level Estimated
04:50PM -28.2433 116.9714 41° Northeast  Level Estimated
04:51PM -28.1913 117.0226 41° Northeast  Level Estimated
04:52PM -28.1393 117.0738 41° Northeast  Level Estimated
04:52PM -28.0994 117.1099 41° Northeast 2,400  Level Aus ATC (Calculated)
04:53PM -28.0530 117.1549 41° Northeast 2,400  Level Aus ATC (Calculated)
04:54PM -27.9644 117.2407 41° Northeast 2,400  Level Aus ATC (Calculated)
04:56PM -27.9002 117.3037 41° Northeast  Level Estimated
04:56PM -27.8377 117.3631 40° Northeast 2,400  Level Aus ATC (Calculated)
04:57PM -27.7994 117.4000 360° North 2,400  Level Aus ATC (Calculated)
04:57PM -27.7994 117.4000 41° Northeast 2,400  Level Aus ATC (Calculated)
04:59PM -27.7413 117.4570 41° Northeast  Level Estimated
05:00PM -27.6892 117.5079 41° Northeast  Level Estimated
05:01PM -27.6371 117.5588 41° Northeast  Level Estimated
05:02PM -27.5851 117.6096 41° Northeast  Level Estimated
05:02PM -27.5022 117.6854 216° Southwest 2,400  Level Aus ATC (Calculated)
05:03PM -27.5329 117.6604 41° Northeast  Level Estimated
05:03PM -27.4464 117.7387 41° Northeast 2,400  Level Aus ATC (Calculated)
05:05PM -27.3840 117.7997 41° Northeast  Level Estimated
05:06PM -27.3320 117.8506 41° Northeast  Level Estimated
05:07PM -27.2799 117.9014 41° Northeast  Level Estimated
05:07PM -27.1846 117.9880 41° Northeast 2,400  Level Aus ATC (Calculated)
05:09PM -27.1215 118.0500 41° Northeast  Level Estimated
05:10PM -27.0697 118.1009 41° Northeast  Level Estimated
05:10PM -27.0404 118.1246 47° Northeast 2,400  Level Aus ATC (Calculated)
05:11PM -27.0178 118.1517 41° Northeast  Level Estimated
05:12PM -26.9776 118.1868 41° Northeast  Level Estimated
05:13PM -26.9260 118.2380 41° Northeast  Level Estimated
05:13PM -26.8780 118.2778 42° Northeast 2,400  Level Aus ATC (Calculated)
05:15PM -26.8160 118.3409 42° Northeast  Level Estimated
05:16PM -26.7649 118.3927 42° Northeast  Level Estimated
05:16PM -26.6748 118.4688 360° North 2,400  Level Aus ATC (Calculated)
05:16PM -26.6748 118.4688 209° Southwest 2,400  Level Aus ATC (Calculated)
05:17PM -26.7138 118.4444 42° Northeast  Level Estimated
05:18PM -26.6182 118.5396 48° Northeast  Level Estimated
05:19PM -26.6117 118.5478 48° Northeast  Level Estimated
05:20PM -26.6117 118.5478 329° Northwest  Level Estimated
05:21PM -26.6117 118.5478 329° Northwest  Level Estimated
05:22PM -26.6117 118.5478 329° Northwest  Level Estimated
05:23PM -26.6117 118.5478 329° Northwest  Level Estimated
05:24PM -26.6117 118.5478 329° Northwest  Level Estimated
05:25PM -26.6117 118.5478 48° Northeast  Level Estimated
05:26PM -26.6117 118.5478 329° Northwest  Level Estimated